Terminal Aerodrome Forecast
Issued by NWS Sioux Falls, SD

Home | Current Version | Previous Version | Text Only | Print | Product List | Glossary On
Versions: 1 2 3 4 5 6 7 8 9 10 11 12 13 14 15 16 17 18 19 20
000
FTUS43 KFSD 220705 AAA
TAFSUX
TAF AMD
KSUX 220705Z 2207/2306 33004KT 5SM BR FEW003
      TEMPO 2207/2209 1 1/2SM BR OVC002
     FM221000 32006KT P6SM SKC
     FM221400 34009KT P6SM SKC
     FM230100 VRB03KT P6SM SKC=

USA.gov is the U.S. government's official web portal to all federal, state and local government web resources and services.